Time;durP1;ratioP1;P1;durP2;ratioP2;P2;SDS_P1;SDS_P2;PMS_P1;PMS_P2;Temp;Humidity;BMP_temperature;BMP_pressure;BME280_temperature;BME280_humidity;BME280_pressure;Samples;Min_cycle;Max_cycle;Signal;HPM_P1;HPM_P2
2022/10/29 00:03:56;;;;;;;;;;;;;;;10.59;82.45;102146.59;1334551;23;20235;-90
2022/10/29 00:33:41;;;;;;;;;;;;;;;10.50;82.20;102136.56;4884109;22;19996;-90
2022/10/29 00:36:44;;;;;;;;;;;;;;;10.37;82.87;102138.53;5037061;28;19981;-91
2022/10/29 00:39:37;;;;;;;;;;;;;;;10.21;83.86;102137.06;5052600;28;19964;-91
2022/10/29 00:42:23;;;;;;;;;;;;;;;10.27;83.76;102139.25;5035949;28;19928;-90
2022/10/29 00:44:55;;;;;;;;;;;;;;;10.25;83.65;102135.81;5036362;28;19916;-91
2022/10/29 00:47:27;;;;;;;;;;;;;;;10.26;83.44;102134.00;5004291;28;19910;-90
2022/10/29 00:49:58;;;;;;;;;;;;;;;10.17;83.88;102137.44;5035204;28;19964;-91
2022/10/29 00:52:46;;;;;;;;;;;;;;;10.22;83.63;102125.31;5048973;28;20345;-90
2022/10/29 00:58:19;;;;;;;;;;;;;;;10.17;84.06;102127.53;5117672;23;19941;-91
2022/10/29 01:01:39;;;;;;;;;;;;;;;10.04;84.67;102129.47;5036462;28;19913;-91
2022/10/29 01:04:19;;;;;;;;;;;;;;;9.98;85.38;102121.91;5036313;28;19906;-92
2022/10/29 01:09:23;;;;;;;;;;;;;;;10.00;84.72;102120.81;5044490;23;19933;-91
2022/10/29 01:14:38;;;;;;;;;;;;;;;9.81;85.79;102116.03;5020986;28;20393;-90
2022/10/29 01:17:17;;;;;;;;;;;;;;;9.93;85.06;102109.69;5029033;28;19913;-93
2022/10/29 01:20:12;;;;;;;;;;;;;;;9.99;84.38;102110.19;5021694;28;20059;-92
2022/10/29 01:22:57;;;;;;;;;;;;;;;10.00;83.89;102099.31;5033846;28;19917;-93
2022/10/29 02:01:23;;;;;;;;;;;;;;;9.61;86.55;102079.16;5030845;28;20028;-93
2022/10/29 02:04:16;;;;;;;;;;;;;;;9.58;86.48;102077.56;5028218;28;19952;-93
2022/10/29 02:07:23;;;;;;;;;;;;;;;9.66;86.31;102077.78;5079100;23;19959;-94
2022/10/29 02:10:33;;;;;;;;;;;;;;;9.58;86.02;102064.13;5063916;28;19925;-91
2022/10/29 03:00:59;;;;;;;;;;;;;;;9.22;86.70;102049.88;4960656;23;19935;-91
2022/10/29 03:06:45;;;;;;;;;;;;;;;9.16;87.22;102052.22;5310973;22;19913;-92
2022/10/29 03:09:33;;;;;;;;;;;;;;;9.08;nan;102047.41;5222882;23;20298;-92
2022/10/29 03:12:18;;;;;;;;;;;;;;;9.16;87.13;102049.53;5050947;28;19913;-94
2022/10/29 03:14:46;;;;;;;;;;;;;;;9.13;87.49;102052.44;5259308;23;19925;-93
2022/10/29 03:17:41;;;;;;;;;;;;;;;9.05;87.70;102047.66;5492273;23;20202;31
2022/10/29 03:20:20;;;;;;;;;;;;;;;9.14;87.26;102046.09;5259111;22;20240;-90
2022/10/29 03:23:09;;;;;;;;;;;;;;;9.18;86.82;102042.22;5036909;28;19929;-91
2022/10/29 03:32:24;;;;;;;;;;;;;;;8.93;87.69;102029.81;5012236;28;19997;-93
2022/10/29 03:35:04;;;;;;;;;;;;;;;8.83;88.02;102037.72;5181233;22;19913;-92
2022/10/29 03:43:31;;;;;;;;;;;;;;;8.92;86.55;102030.78;5690481;23;19928;-93
2022/10/29 03:48:40;;;;;;;;;;;;;;;8.88;86.58;102030.19;5603557;23;19917;-92
2022/10/29 03:54:19;;;;;;;;;;;;;;;8.73;87.20;102034.00;5235184;23;20012;-92
2022/10/29 03:57:45;;;;;;;;;;;;;;;8.52;87.64;102031.97;5124013;23;19925;-92
2022/10/29 04:03:23;;;;;;;;;;;;;;;8.49;87.32;102032.19;5455542;22;19970;-90
2022/10/29 05:33:51;;;;;;;;;;;;;;;8.73;89.10;102077.75;5142915;23;19930;-90
2022/10/29 05:36:27;;;;;;;;;;;;;;;8.95;88.02;102079.69;5051755;23;19976;-92
2022/10/29 05:42:29;;;;;;;;;;;;;;;9.34;84.49;102068.72;5826022;23;21273;31
2022/10/29 05:45:31;;;;;;;;;;;;;;;9.70;82.49;102083.78;5195132;23;20142;-92
2022/10/29 06:05:30;;;;;;;;;;;;;;;11.72;74.53;102103.03;5040439;23;19929;-93
2022/10/29 06:13:35;;;;;;;;;;;;;;;15.27;62.16;102102.09;3725091;23;19909;-93
2022/10/29 06:27:43;;;;;;;;;;;;;;;18.66;49.06;102092.19;5032126;28;19949;-91
2022/10/29 06:30:30;;;;;;;;;;;;;;;18.83;49.12;102094.84;5024846;28;19913;-87
2022/10/29 06:33:02;;;;;;;;;;;;;;;18.25;49.70;102088.81;5017547;28;19924;-88
2022/10/29 06:35:28;;;;;;;;;;;;;;;17.97;51.09;102093.88;5010841;28;20385;-88
2022/10/29 06:37:53;;;;;;;;;;;;;;;18.34;51.19;102099.50;4991498;28;19925;-88
2022/10/29 06:40:20;;;;;;;;;;;;;;;17.82;51.88;102101.91;4989735;28;19999;-88
2022/10/29 06:42:50;;;;;;;;;;;;;;;17.80;52.23;102109.34;4993694;28;19917;-85
2022/10/29 06:45:19;;;;;;;;;;;;;;;17.70;52.88;102107.66;5006793;28;20362;-88
2022/10/29 06:47:45;;;;;;;;;;;;;;;17.42;53.40;102096.31;4996165;28;20373;-86
2022/10/29 06:50:11;;;;;;;;;;;;;;;17.10;53.62;102102.59;5009591;28;19930;-91
2022/10/29 06:52:37;;;;;;;;;;;;;;;17.26;54.07;102104.50;5021967;28;19917;-89
2022/10/29 06:55:10;;;;;;;;;;;;;;;17.55;52.40;102100.38;4995324;28;19960;-90
2022/10/29 06:57:41;;;;;;;;;;;;;;;17.39;52.67;102110.25;5013771;28;19925;-87
2022/10/29 07:00:07;;;;;;;;;;;;;;;17.56;52.32;102104.78;5010835;28;19985;-88
2022/10/29 07:02:33;;;;;;;;;;;;;;;17.95;51.04;102113.06;4977817;28;20455;-88
2022/10/29 07:05:03;;;;;;;;;;;;;;;18.31;49.99;102113.47;4990146;28;20309;-90
2022/10/29 07:07:29;;;;;;;;;;;;;;;19.10;48.44;102101.59;4991197;28;19925;-85
2022/10/29 07:09:54;;;;;;;;;;;;;;;19.57;46.72;102111.41;4985522;28;19921;-86
2022/10/29 07:12:20;;;;;;;;;;;;;;;20.26;45.02;102119.41;4992480;28;19921;-87
2022/10/29 07:14:47;;;;;;;;;;;;;;;21.32;43.00;102107.97;4990328;28;19921;-84
2022/10/29 07:17:13;;;;;;;;;;;;;;;22.36;41.27;102113.56;5015175;28;19922;-88
2022/10/29 07:19:38;;;;;;;;;;;;;;;23.73;38.13;102101.31;5011808;28;20060;-88
2022/10/29 07:22:04;;;;;;;;;;;;;;;24.64;35.71;102103.19;5000088;28;20008;-91
2022/10/29 07:24:30;;;;;;;;;;;;;;;24.86;35.22;102100.09;5033664;23;19934;-87
2022/10/29 07:26:56;;;;;;;;;;;;;;;25.58;34.10;102102.53;4943069;29;20370;-89
2022/10/29 07:29:30;;;;;;;;;;;;;;;26.36;33.17;102096.38;4935487;29;20445;-89
2022/10/29 07:31:56;;;;;;;;;;;;;;;26.19;33.28;102098.91;4943653;29;19975;-86
2022/10/29 07:34:22;;;;;;;;;;;;;;;26.65;31.88;102097.50;4935170;29;20311;-90
2022/10/29 07:36:50;;;;;;;;;;;;;;;27.03;31.21;102095.47;4929494;29;19944;-89
2022/10/29 07:39:21;;;;;;;;;;;;;;;27.20;31.10;102101.16;4938841;29;20315;-88
2022/10/29 07:41:48;;;;;;;;;;;;;;;27.91;30.26;102089.09;4939311;29;20384;-89
2022/10/29 07:44:14;;;;;;;;;;;;;;;28.59;29.38;102095.78;4936662;28;19982;-88
2022/10/29 07:46:43;;;;;;;;;;;;;;;29.01;28.67;102087.13;4936786;29;19915;-89
2022/10/29 07:49:15;;;;;;;;;;;;;;;29.75;27.27;102086.13;4916446;29;19986;-91
2022/10/29 07:51:41;;;;;;;;;;;;;;;30.28;26.55;102086.56;4942313;29;19934;-91
2022/10/29 07:54:07;;;;;;;;;;;;;;;30.90;26.12;102080.56;4949018;29;19919;-86
2022/10/29 07:56:33;;;;;;;;;;;;;;;31.01;25.55;102086.25;4930228;29;19985;-88
2022/10/29 07:58:59;;;;;;;;;;;;;;;31.52;24.59;102076.38;4938799;29;19922;-89
2022/10/29 08:01:25;;;;;;;;;;;;;;;31.92;24.33;102080.50;4937050;29;19923;-91
2022/10/29 08:03:51;;;;;;;;;;;;;;;32.26;24.03;102085.66;4939611;29;20021;-90
2022/10/29 08:06:17;;;;;;;;;;;;;;;32.14;23.48;102088.69;4945969;29;19926;-90
2022/10/29 08:08:43;;;;;;;;;;;;;;;31.60;24.31;102072.25;4943859;29;19927;-93
2022/10/29 08:11:08;;;;;;;;;;;;;;;31.78;24.34;102078.47;4946981;29;19994;-90
2022/10/29 08:13:34;;;;;;;;;;;;;;;32.33;23.49;102080.66;4932001;29;19927;-87
2022/10/29 08:16:00;;;;;;;;;;;;;;;32.29;23.06;102081.53;4944380;29;19914;-92
2022/10/29 08:18:27;;;;;;;;;;;;;;;32.44;23.45;102078.75;4938247;29;19969;-90
2022/10/29 08:20:54;;;;;;;;;;;;;;;32.92;22.47;102081.38;4937449;29;19918;-89
2022/10/29 08:23:19;;;;;;;;;;;;;;;33.12;22.42;102072.22;4941535;29;20038;-90
2022/10/29 08:25:44;;;;;;;;;;;;;;;33.14;22.17;102062.47;4959546;28;19934;-91
2022/10/29 08:28:12;;;;;;;;;;;;;;;34.35;21.26;102061.59;4938474;29;19998;-89
2022/10/29 08:30:39;;;;;;;;;;;;;;;34.63;20.87;102064.75;4954688;28;19918;-90
2022/10/29 08:33:04;;;;;;;;;;;;;;;35.40;20.37;102066.91;4955465;28;19965;-88
2022/10/29 08:35:30;;;;;;;;;;;;;;;36.24;19.37;102058.13;4930231;28;20386;-90
2022/10/29 08:37:55;;;;;;;;;;;;;;;36.63;19.05;102048.63;4958247;28;20606;-91
2022/10/29 08:40:27;;;;;;;;;;;;;;;36.87;18.80;102056.91;4935294;28;19922;-90
2022/10/29 08:43:11;;;;;;;;;;;;;;;37.75;18.02;102046.63;4956681;28;19923;-88
2022/10/29 08:45:52;;;;;;;;;;;;;;;38.08;17.58;102054.09;4954125;28;19922;-90
2022/10/29 08:48:20;;;;;;;;;;;;;;;39.03;16.80;102043.69;4937976;29;19922;-90
2022/10/29 08:51:00;;;;;;;;;;;;;;;38.96;16.77;102042.47;4956161;28;19929;-88
2022/10/29 08:53:30;;;;;;;;;;;;;;;39.50;16.32;102054.56;4942582;28;20073;-89
2022/10/29 08:55:55;;;;;;;;;;;;;;;38.91;16.84;102053.81;4944120;28;20371;-90
2022/10/29 08:58:20;;;;;;;;;;;;;;;39.06;16.66;102056.28;4951604;28;19919;-88
2022/10/29 09:00:45;;;;;;;;;;;;;;;39.39;16.43;102036.28;4952730;28;20018;-89
2022/10/29 09:03:14;;;;;;;;;;;;;;;39.70;16.23;102041.03;4936169;29;19923;-89
2022/10/29 09:05:46;;;;;;;;;;;;;;;40.30;15.93;102037.56;4945408;28;20013;-89
2022/10/29 09:08:12;;;;;;;;;;;;;;;40.40;15.61;102030.75;4934516;29;19918;-88
2022/10/29 09:10:43;;;;;;;;;;;;;;;40.48;15.80;102032.72;4948856;28;19935;-89
2022/10/29 09:13:17;;;;;;;;;;;;;;;40.89;15.25;102032.22;4934768;28;19918;-89
2022/10/29 09:15:49;;;;;;;;;;;;;;;40.88;15.62;102019.28;4939108;29;20077;-91
2022/10/29 09:18:23;;;;;;;;;;;;;;;40.03;15.91;102021.75;4954637;28;19927;-88
2022/10/29 09:20:48;;;;;;;;;;;;;;;39.35;16.62;102018.38;4955112;28;19926;-90
2022/10/29 09:23:19;;;;;;;;;;;;;;;39.19;16.69;102015.97;4933997;29;20037;-89
2022/10/29 09:25:50;;;;;;;;;;;;;;;39.11;16.69;102013.97;4953490;28;20025;-89
2022/10/29 09:28:44;;;;;;;;;;;;;;;38.91;17.27;102008.84;4935750;29;19953;-89
2022/10/29 09:31:15;;;;;;;;;;;;;;;39.28;16.71;102003.94;4924485;29;19918;-88
2022/10/29 09:33:49;;;;;;;;;;;;;;;39.85;16.45;101998.38;4949593;28;20407;-90
2022/10/29 09:36:18;;;;;;;;;;;;;;;39.97;16.21;102001.38;4936074;28;19923;-89
2022/10/29 09:39:03;;;;;;;;;;;;;;;39.36;16.80;101997.50;4932722;29;20046;-89
2022/10/29 09:41:32;;;;;;;;;;;;;;;38.64;17.41;101994.63;4937513;29;19926;-89
2022/10/29 09:44:20;;;;;;;;;;;;;;;36.33;19.63;102003.13;4932241;29;19922;-90
2022/10/29 09:46:46;;;;;;;;;;;;;;;36.04;20.32;101995.69;4942708;28;19934;-89
2022/10/29 09:49:17;;;;;;;;;;;;;;;34.68;21.22;101989.34;4951086;28;19930;-88
2022/10/29 09:57:48;;;;;;;;;;;;;;;34.66;21.42;101981.25;4865583;29;19924;-89
2022/10/29 10:00:19;;;;;;;;;;;;;;;35.08;21.49;101987.28;4902012;29;19923;-89
2022/10/29 10:02:48;;;;;;;;;;;;;;;34.99;21.22;101978.72;4952898;28;19930;-89
2022/10/29 10:05:15;;;;;;;;;;;;;;;34.64;21.09;101975.13;4959792;28;19925;-90
2022/10/29 10:07:42;;;;;;;;;;;;;;;35.01;21.39;101973.66;4957226;28;19941;-88
2022/10/29 10:10:21;;;;;;;;;;;;;;;35.56;20.77;101969.72;4949590;28;19918;-90
2022/10/29 10:12:47;;;;;;;;;;;;;;;34.96;20.89;101962.53;4935739;28;19926;-87
2022/10/29 10:15:15;;;;;;;;;;;;;;;33.39;22.52;101961.28;4928053;29;20403;-87
2022/10/29 10:17:54;;;;;;;;;;;;;;;33.72;22.90;101960.91;4945849;28;19919;-89
2022/10/29 10:20:40;;;;;;;;;;;;;;;34.25;21.71;101953.63;4930649;29;20378;-90
2022/10/29 10:23:18;;;;;;;;;;;;;;;34.37;22.35;101949.63;4957700;28;19917;-87
2022/10/29 10:25:44;;;;;;;;;;;;;;;32.63;23.87;101950.22;4953792;29;19922;-88
2022/10/29 10:28:16;;;;;;;;;;;;;;;32.96;24.25;101949.63;4952603;29;19994;-89
2022/10/29 10:30:42;;;;;;;;;;;;;;;32.17;24.76;101948.19;4934291;29;19966;-86
2022/10/29 10:33:13;;;;;;;;;;;;;;;32.64;24.71;101937.97;4928346;29;19923;-85
2022/10/29 10:35:39;;;;;;;;;;;;;;;32.95;23.94;101934.03;4920356;29;20391;-84
2022/10/29 10:38:10;;;;;;;;;;;;;;;32.81;24.77;101927.38;4924098;29;19927;-86
2022/10/29 10:40:36;;;;;;;;;;;;;;;33.62;23.92;101923.56;4924140;29;19919;-85
2022/10/29 10:43:01;;;;;;;;;;;;;;;33.07;24.29;101927.38;4913335;29;20307;-85
2022/10/29 10:45:28;;;;;;;;;;;;;;;32.14;25.29;101929.28;4922557;29;19987;-86
2022/10/29 10:47:56;;;;;;;;;;;;;;;32.44;25.33;101917.34;4932622;29;19923;-83
2022/10/29 10:50:21;;;;;;;;;;;;;;;32.78;24.89;101914.03;4911357;29;19923;-84
2022/10/29 10:53:07;;;;;;;;;;;;;;;33.14;24.17;101908.41;4929681;29;19942;-85
2022/10/29 10:59:00;;;;;;;;;;;;;;;32.39;24.77;101909.00;4895883;29;20281;-86
2022/10/29 11:01:45;;;;;;;;;;;;;;;31.85;25.95;101912.25;4931755;29;20003;-87
2022/10/29 11:04:30;;;;;;;;;;;;;;;31.88;26.07;101906.13;4933045;29;19924;-85
2022/10/29 11:06:57;;;;;;;;;;;;;;;30.22;27.76;101897.03;4937002;29;19915;-85
2022/10/29 11:09:28;;;;;;;;;;;;;;;31.65;26.20;101894.38;4938527;29;20462;-88
2022/10/29 11:12:26;;;;;;;;;;;;;;;31.96;25.90;101894.50;4937529;29;19918;-87
2022/10/29 11:14:53;;;;;;;;;;;;;;;30.83;27.42;101885.59;4935851;29;20360;-91
2022/10/29 11:17:56;;;;;;;;;;;;;;;30.63;27.68;101885.47;4930492;29;19919;-88
2022/10/29 11:20:25;;;;;;;;;;;;;;;29.58;28.91;101889.41;4892869;29;19931;-83
2022/10/29 11:22:54;;;;;;;;;;;;;;;30.22;27.97;101876.78;4923070;29;20356;-87
2022/10/29 11:25:30;;;;;;;;;;;;;;;30.49;27.58;101880.38;4944347;28;20377;-84
2022/10/29 11:28:34;;;;;;;;;;;;;;;30.79;27.32;101878.94;4937598;29;19994;-85
2022/10/29 11:31:11;;;;;;;;;;;;;;;30.49;27.39;101868.44;4940010;29;20057;-85
2022/10/29 11:33:54;;;;;;;;;;;;;;;29.23;29.09;101867.63;4927944;29;19923;-85
2022/10/29 11:36:25;;;;;;;;;;;;;;;30.38;28.13;101861.97;4931487;29;19922;-85
2022/10/29 11:39:23;;;;;;;;;;;;;;;29.91;27.72;101864.56;4935579;29;19922;-83
2022/10/29 11:41:58;;;;;;;;;;;;;;;27.83;30.38;101859.22;4915498;29;19924;-84
2022/10/29 11:44:27;;;;;;;;;;;;;;;26.98;32.28;101867.13;4932758;29;19919;-85
2022/10/29 11:47:18;;;;;;;;;;;;;;;27.60;31.53;101860.16;4937240;29;19970;-84
2022/10/29 11:50:19;;;;;;;;;;;;;;;25.97;34.44;101863.53;4934002;29;19978;-84
2022/10/29 11:52:46;;;;;;;;;;;;;;;26.11;34.60;101854.81;4897210;29;19930;-84
2022/10/29 11:55:24;;;;;;;;;;;;;;;25.85;34.10;101856.03;4938319;29;20002;-85
2022/10/29 11:58:09;;;;;;;;;;;;;;;25.30;35.35;101858.03;4937631;29;20355;-84
2022/10/29 12:00:49;;;;;;;;;;;;;;;24.35;37.14;101850.88;4936759;29;20009;-85
2022/10/29 12:03:22;;;;;;;;;;;;;;;24.37;37.33;101851.50;4933493;29;20022;-84
2022/10/29 12:05:51;;;;;;;;;;;;;;;22.80;40.59;101853.69;4933452;29;19926;-84
2022/10/29 12:08:26;;;;;;;;;;;;;;;22.98;40.56;101851.13;4933938;29;19923;-86
2022/10/29 12:11:10;;;;;;;;;;;;;;;21.98;42.45;101840.16;4952106;29;20410;-84
2022/10/29 12:13:46;;;;;;;;;;;;;;;22.02;42.48;101844.16;4934124;29;19923;-84
2022/10/29 12:16:50;;;;;;;;;;;;;;;21.68;42.75;101829.56;4951257;28;19925;-84
2022/10/29 12:19:27;;;;;;;;;;;;;;;21.12;44.41;101821.53;4930186;29;19930;-86
2022/10/29 12:21:54;;;;;;;;;;;;;;;20.60;46.06;101828.34;4937712;29;19919;-85
2022/10/29 12:24:43;;;;;;;;;;;;;;;20.77;46.53;101816.09;4942213;28;19942;-86
2022/10/29 12:27:16;;;;;;;;;;;;;;;21.03;46.12;101823.59;4949919;28;20378;-85
2022/10/29 12:29:52;;;;;;;;;;;;;;;20.66;47.10;101830.28;4937111;29;19922;-83
2022/10/29 12:32:20;;;;;;;;;;;;;;;20.30;48.45;101824.94;4959024;28;19922;-87
2022/10/29 12:34:52;;;;;;;;;;;;;;;19.86;49.69;101818.66;4955383;28;19929;-87
2022/10/29 12:37:37;;;;;;;;;;;;;;;19.72;49.91;101817.66;4930937;28;19915;-87
2022/10/29 12:40:11;;;;;;;;;;;;;;;19.80;49.72;101813.97;4951851;28;19930;-88
2022/10/29 12:42:42;;;;;;;;;;;;;;;19.57;50.05;101816.81;4950529;28;20009;-86
2022/10/29 12:45:32;;;;;;;;;;;;;;;19.38;50.37;101815.56;4957548;28;19923;-89
2022/10/29 12:48:15;;;;;;;;;;;;;;;19.45;50.17;101811.03;4951446;29;19994;-86
2022/10/29 12:51:04;;;;;;;;;;;;;;;19.29;50.66;101811.25;4952930;28;20283;-88
2022/10/29 12:53:45;;;;;;;;;;;;;;;19.13;51.72;101815.88;4953134;28;19977;-88
2022/10/29 12:56:11;;;;;;;;;;;;;;;18.93;52.58;101807.44;4961897;28;19923;-89
2022/10/29 12:58:42;;;;;;;;;;;;;;;18.96;52.63;101803.47;4956091;28;19923;-85
2022/10/29 13:01:29;;;;;;;;;;;;;;;18.97;52.57;101800.56;4915712;28;19919;-88
2022/10/29 13:03:59;;;;;;;;;;;;;;;18.43;54.61;101802.69;4926849;29;19929;-87
2022/10/29 13:06:43;;;;;;;;;;;;;;;18.45;54.79;101803.31;4942424;28;20391;-84
2022/10/29 13:09:19;;;;;;;;;;;;;;;18.37;55.54;101792.53;4958836;28;19926;-85
2022/10/29 13:11:54;;;;;;;;;;;;;;;18.29;55.99;101788.84;4960863;28;19918;-87
2022/10/29 13:14:39;;;;;;;;;;;;;;;18.16;56.22;101793.22;4932228;29;20434;-86
2022/10/29 13:17:06;;;;;;;;;;;;;;;18.02;56.20;101792.97;4956548;28;19931;-89
2022/10/29 13:19:36;;;;;;;;;;;;;;;18.04;56.08;101792.81;4929313;29;19934;-87
2022/10/29 13:22:04;;;;;;;;;;;;;;;17.92;56.50;101786.97;4956518;28;19922;-87
2022/10/29 13:24:31;;;;;;;;;;;;;;;17.94;56.66;101782.19;4955618;28;19929;-87
2022/10/29 13:26:58;;;;;;;;;;;;;;;17.71;57.10;101784.88;4910900;29;19922;-88
2022/10/29 13:29:44;;;;;;;;;;;;;;;17.50;57.87;101786.34;4939405;28;19923;-88
2022/10/29 13:32:34;;;;;;;;;;;;;;;17.49;58.56;101781.94;4932105;29;19922;-91
2022/10/29 13:35:02;;;;;;;;;;;;;;;17.45;58.83;101790.66;4947174;28;19919;-87
2022/10/29 13:37:46;;;;;;;;;;;;;;;17.37;59.40;101785.25;4930362;29;20025;-88
2022/10/29 13:40:21;;;;;;;;;;;;;;;17.45;59.55;101780.59;4928705;28;19929;-84
2022/10/29 13:42:55;;;;;;;;;;;;;;;17.42;59.42;101783.69;4953142;28;19923;-87
2022/10/29 13:45:21;;;;;;;;;;;;;;;17.25;59.88;101780.19;4931905;29;19919;-89
2022/10/29 13:47:47;;;;;;;;;;;;;;;16.96;61.50;101772.72;4934144;29;19918;-89
2022/10/29 13:50:19;;;;;;;;;;;;;;;16.87;61.60;101776.47;4936618;29;19953;-87
2022/10/29 13:52:45;;;;;;;;;;;;;;;17.14;60.73;101775.19;4956485;28;19958;-88
2022/10/29 13:55:11;;;;;;;;;;;;;;;17.08;61.01;101768.56;4932743;29;19926;-89
2022/10/29 13:57:42;;;;;;;;;;;;;;;17.07;61.45;101771.47;4924912;28;19970;-87
2022/10/29 14:00:13;;;;;;;;;;;;;;;16.84;62.07;101768.69;4950527;28;19926;-86
2022/10/29 14:02:42;;;;;;;;;;;;;;;16.71;63.13;101771.91;4951865;28;19930;-87
2022/10/29 14:05:38;;;;;;;;;;;;;;;16.79;62.88;101768.38;4950381;28;19923;-84
2022/10/29 14:08:17;;;;;;;;;;;;;;;16.75;63.53;101761.56;4951716;28;20021;-88
2022/10/29 14:10:51;;;;;;;;;;;;;;;16.52;64.26;101762.28;4938029;29;19922;-89
2022/10/29 14:13:30;;;;;;;;;;;;;;;16.65;63.78;101764.47;4953314;28;20391;-87
2022/10/29 14:16:04;;;;;;;;;;;;;;;16.42;64.57;101767.06;4929360;29;19918;-88
2022/10/29 14:18:36;;;;;;;;;;;;;;;16.25;65.28;101756.25;4947334;28;19922;-86
2022/10/29 14:21:05;;;;;;;;;;;;;;;16.35;65.26;101760.63;4955862;28;19926;-87
2022/10/29 14:23:31;;;;;;;;;;;;;;;16.32;65.05;101761.84;4962100;28;19989;-87
2022/10/29 14:25:58;;;;;;;;;;;;;;;16.25;65.79;101769.81;4938266;29;20029;-88
2022/10/29 14:28:30;;;;;;;;;;;;;;;16.26;65.63;101759.78;4937828;28;19919;-86
2022/10/29 14:31:13;;;;;;;;;;;;;;;16.02;66.50;101764.22;4950557;29;19922;-87
2022/10/29 14:33:44;;;;;;;;;;;;;;;16.06;66.40;101763.88;4960560;28;19926;-85
2022/10/29 14:36:12;;;;;;;;;;;;;;;15.99;67.12;101771.84;4967193;28;19926;-87
2022/10/29 14:38:38;;;;;;;;;;;;;;;15.99;67.31;101770.00;4938853;28;19922;-87
2022/10/29 14:41:03;;;;;;;;;;;;;;;15.94;67.73;101769.63;4960402;28;19927;-87
2022/10/29 14:43:29;;;;;;;;;;;;;;;15.78;68.52;101770.50;4951418;28;19926;-86
2022/10/29 14:45:55;;;;;;;;;;;;;;;15.77;68.77;101768.78;4919807;29;20311;-88
2022/10/29 14:48:21;;;;;;;;;;;;;;;15.78;68.78;101766.91;4952269;28;19923;-89
2022/10/29 14:50:48;;;;;;;;;;;;;;;15.65;69.46;101766.56;4949491;28;20319;-88
2022/10/29 14:53:23;;;;;;;;;;;;;;;15.52;70.14;101764.31;4918942;29;19932;-87
2022/10/29 14:55:49;;;;;;;;;;;;;;;15.53;70.29;101766.03;4933424;28;19922;-88
2022/10/29 14:58:27;;;;;;;;;;;;;;;15.58;69.87;101769.06;4933874;29;20017;-85
2022/10/29 15:00:58;;;;;;;;;;;;;;;15.48;70.40;101762.97;4941552;29;19907;-85
2022/10/29 15:03:25;;;;;;;;;;;;;;;15.41;70.83;101758.19;4938541;29;19926;-87
2022/10/29 15:05:52;;;;;;;;;;;;;;;15.30;71.05;101761.22;4929959;29;20006;-88
2022/10/29 15:08:28;;;;;;;;;;;;;;;15.27;71.19;101758.84;4939678;28;19927;-87
2022/10/29 15:10:54;;;;;;;;;;;;;;;15.17;71.68;101750.88;4957883;28;20052;-88
2022/10/29 15:13:38;;;;;;;;;;;;;;;15.22;71.57;101774.75;4933923;28;20194;-87
2022/10/29 15:16:08;;;;;;;;;;;;;;;15.14;72.13;101772.00;4948330;28;19933;-87
2022/10/29 15:18:37;;;;;;;;;;;;;;;14.99;72.90;101771.78;4918980;29;20386;-86
2022/10/29 15:21:03;;;;;;;;;;;;;;;14.98;72.41;101773.66;4904078;29;19923;-87
2022/10/29 15:23:37;;;;;;;;;;;;;;;14.93;73.20;101775.97;4932127;28;20013;-89
2022/10/29 15:26:04;;;;;;;;;;;;;;;14.97;72.52;101769.22;4912862;29;19981;-87
2022/10/29 15:28:34;;;;;;;;;;;;;;;14.91;73.03;101777.16;4918484;28;19930;-90
2022/10/29 15:31:01;;;;;;;;;;;;;;;14.86;73.23;101774.09;4948730;28;19957;-89
2022/10/29 15:33:27;;;;;;;;;;;;;;;14.79;73.66;101779.28;4924609;29;19927;-89
2022/10/29 15:35:53;;;;;;;;;;;;;;;14.82;73.81;101781.69;4920276;28;20362;-88
2022/10/29 15:38:40;;;;;;;;;;;;;;;14.72;73.89;101786.38;4934097;28;19958;-89
2022/10/29 15:41:21;;;;;;;;;;;;;;;14.75;73.74;101788.78;4944044;28;19946;-89
2022/10/29 15:43:54;;;;;;;;;;;;;;;14.70;73.88;101785.66;4949885;28;19923;-88
2022/10/29 15:46:27;;;;;;;;;;;;;;;14.74;73.93;101787.06;4949777;28;19918;-88
2022/10/29 15:48:52;;;;;;;;;;;;;;;14.75;73.77;101788.78;4966348;28;19929;-86
2022/10/29 15:51:18;;;;;;;;;;;;;;;14.74;73.64;101789.75;4958555;28;19961;-87
2022/10/29 15:53:49;;;;;;;;;;;;;;;14.73;73.83;101791.63;4924915;28;19958;-87
2022/10/29 15:56:16;;;;;;;;;;;;;;;14.72;74.02;101799.91;4958976;28;19918;-87
2022/10/29 15:58:42;;;;;;;;;;;;;;;14.70;73.99;101796.50;4935190;29;20398;-87
2022/10/29 16:01:11;;;;;;;;;;;;;;;14.72;73.87;101792.63;4944056;28;19930;-86
2022/10/29 16:03:38;;;;;;;;;;;;;;;14.70;73.97;101791.09;4944867;29;20026;-86
2022/10/29 16:06:09;;;;;;;;;;;;;;;14.71;73.73;101793.66;4953560;28;19961;-84
2022/10/29 16:08:50;;;;;;;;;;;;;;;14.66;73.96;101789.72;4951418;28;19931;-86
2022/10/29 16:11:20;;;;;;;;;;;;;;;14.57;74.57;101786.97;4964380;28;19930;-88
2022/10/29 16:13:45;;;;;;;;;;;;;;;14.66;73.95;101798.69;4960671;28;19927;-88
2022/10/29 16:16:13;;;;;;;;;;;;;;;14.66;74.00;101797.84;4935941;29;19953;-85
2022/10/29 16:19:05;;;;;;;;;;;;;;;;;;;;;
2022/10/29 16:21:32;;;;;;;;;;;;;;;14.57;74.44;101802.34;4960306;28;20355;-85
2022/10/29 16:23:57;;;;;;;;;;;;;;;14.62;74.08;101805.44;4935271;28;19929;-87
2022/10/29 16:26:27;;;;;;;;;;;;;;;14.58;74.68;101806.75;4939028;29;19950;-86
2022/10/29 16:28:52;;;;;;;;;;;;;;;14.53;74.72;101806.34;4931726;29;19926;-86
2022/10/29 16:31:19;;;;;;;;;;;;;;;14.51;74.87;101803.78;4954701;28;19926;-86
2022/10/29 16:33:45;;;;;;;;;;;;;;;14.57;74.36;101803.19;4932616;29;20359;-89
2022/10/29 16:36:10;;;;;;;;;;;;;;;14.57;74.64;101805.91;4937876;28;19918;-85
2022/10/29 16:38:36;;;;;;;;;;;;;;;14.53;74.70;101799.06;4934523;29;20450;-86
2022/10/29 16:41:01;;;;;;;;;;;;;;;14.60;74.27;101809.31;4923628;29;19919;-87
2022/10/29 16:43:28;;;;;;;;;;;;;;;14.55;74.41;101813.34;4934053;29;19937;-88
2022/10/29 16:45:56;;;;;;;;;;;;;;;14.56;74.42;101811.47;4925756;29;19973;-87
2022/10/29 16:48:25;;;;;;;;;;;;;;;14.47;74.65;101805.13;4947565;28;19942;-87
2022/10/29 16:50:50;;;;;;;;;;;;;;;14.56;74.19;101811.47;4933747;29;19922;-87
2022/10/29 16:53:19;;;;;;;;;;;;;;;14.53;74.33;101800.94;4935540;29;20453;-87
2022/10/29 16:55:46;;;;;;;;;;;;;;;14.49;74.21;101813.94;4950347;28;20081;-86
2022/10/29 16:58:12;;;;;;;;;;;;;;;14.47;74.45;101810.56;4952413;28;20383;-86
2022/10/29 17:00:40;;;;;;;;;;;;;;;14.51;74.12;101809.19;4936731;29;19918;-86
2022/10/29 17:03:08;;;;;;;;;;;;;;;14.53;74.09;101806.34;4952382;28;19966;-85
2022/10/29 17:05:34;;;;;;;;;;;;;;;14.48;74.02;101806.81;4917583;28;20395;-85
2022/10/29 17:07:59;;;;;;;;;;;;;;;14.42;74.24;101807.47;4936735;29;19922;-86
2022/10/29 17:10:26;;;;;;;;;;;;;;;14.35;75.03;101814.50;4950095;28;19926;-87
2022/10/29 17:12:53;;;;;;;;;;;;;;;14.36;74.50;101811.66;4943472;28;20272;-88
2022/10/29 17:15:18;;;;;;;;;;;;;;;14.30;74.65;101806.00;4932699;29;20127;-87
2022/10/29 17:17:44;;;;;;;;;;;;;;;14.36;74.72;101810.81;4956536;28;20033;-87
2022/10/29 17:20:10;;;;;;;;;;;;;;;14.31;74.92;101813.97;4934431;28;19922;-89
2022/10/29 17:22:39;;;;;;;;;;;;;;;14.36;74.59;101813.50;4910496;29;20021;-89
2022/10/29 17:25:07;;;;;;;;;;;;;;;14.34;74.73;101812.81;4930158;29;20042;-89
2022/10/29 17:27:37;;;;;;;;;;;;;;;14.33;74.61;101814.69;4934865;29;20378;-87
2022/10/29 17:30:02;;;;;;;;;;;;;;;14.33;74.85;101811.13;4916756;29;19926;-86
2022/10/29 17:32:31;;;;;;;;;;;;;;;14.29;75.11;101810.59;4934276;29;19926;-87
2022/10/29 17:34:57;;;;;;;;;;;;;;;14.29;74.81;101815.16;4931899;29;20407;-85
2022/10/29 17:37:24;;;;;;;;;;;;;;;14.25;75.07;101809.19;4926920;29;20019;-89
2022/10/29 17:39:51;;;;;;;;;;;;;;;14.25;74.69;101802.94;4929669;29;19930;-89
2022/10/29 17:42:16;;;;;;;;;;;;;;;14.23;74.73;101802.25;4934426;29;19919;-90
2022/10/29 17:44:41;;;;;;;;;;;;;;;14.23;74.89;101807.66;4926881;29;19927;-86
2022/10/29 17:47:07;;;;;;;;;;;;;;;14.22;75.08;101803.25;4915008;29;19958;-86
2022/10/29 17:49:34;;;;;;;;;;;;;;;14.17;75.10;101800.19;4927833;29;20026;-90